Terminal Aerodrome Forecast
Issued by NWS

Home | Current Version | Previous Version | Text Only | Print | Product List | Glossary On
Versions: 1 2 3 4 5 6 7 8 9 10 11 12 13 14 15 16 17 18
000
FTUS41 KPBZ 011100
TAFFKL
TAF
KFKL 011137Z 0112/0212 21006KT 3SM -SN OVC030
      TEMPO 0112/0115 1SM -SN OVC015
     FM011700 13006KT 2SM -SN OVC015
     FM020000 10007KT 1/2SM SN OVC003
     FM020900 18009KT 2SM -SN OVC008
      AMD LTD TO CLD VIS AND WIND=

USA.gov is the U.S. government's official web portal to all federal, state and local government web resources and services.